Zita Schulte — 2JLQ4 — position and weather

sailwx.info

Track history (hours):
 
Tides and Currents Weather Stations Pressure Air Temp Water Temp Dewpoint Dewpoint Depression Visibility Wind Speed Wind Dir Waves Ship Positions

Zita Schulte

Last reported at 2018-Jun-09 02:44 UTC. Time now 2018-Jun-23 16:13 UTC.
Position N 36°08' E 014°48'.
Warning: this ship's position is 14 days out of date.

Length 146 m; draft 7.9 m.

Type: Tanker. MMSI: 235116958.

Date/timePositionNaut miles runAvg speedWind from/ knotsBaromVisibWave heightAir tempDewpointWater temp
2018-Jun-09 02:44N 36°08' E 014°48'415.5
2018-Jun-09 02:28N 36°09' E 014°42'815.5
2018-Jun-09 01:58N 36°11' E 014°33'715.5
2018-Jun-09 01:30N 36°13' E 014°25'815.4
2018-Jun-09 01:00N 36°17' E 014°16'815.3
2018-Jun-09 00:30N 36°20' E 014°08'815.3
2018-Jun-09 00:00N 36°22' E 013°59'815.7
2018-Jun-08 23:30N 36°25' E 013°49'915.8
2018-Jun-08 22:57N 36°28' E 013°40'715.5
2018-Jun-08 22:29N 36°31' E 013°31'915.2
2018-Jun-08 21:54N 36°35' E 013°21'615.2
2018-Jun-08 21:30N 36°37' E 013°14'815.1
2018-Jun-08 21:00N 36°40' E 013°05'  
2018-Jun-06 11:29N 36°01' W 005°14'817.1
2018-Jun-06 11:01N 35°58' W 005°24'26613.1
2018-Jun-05 14:41N 38°22' W 010°06'315.7
2018-Jun-05 14:30N 38°24' W 010°07'1315.7
2018-Jun-05 13:38N 38°37' W 010°10'215.7
2018-Jun-05 13:30N 38°40' W 010°11'816.1
2018-Jun-05 13:01N 38°47' W 010°11'816.3
2018-Jun-05 12:30N 38°56' W 010°11'815.9
2018-Jun-05 12:00N 39°04' W 010°11'816.0
2018-Jun-05 11:30N 39°12' W 010°11'56614.2
2018-Jun-03 19:43N 48°13' W 006°21'12213.8
2018-Jun-03 10:52N 49°35' W 004°03'713.5
2018-Jun-03 10:21N 49°38' W 003°54'513.7
2018-Jun-03 10:00N 49°41' W 003°48'713.7
2018-Jun-03 09:30N 49°45' W 003°39'713.7
2018-Jun-03 09:00N 49°48' W 003°30'713.8
2018-Jun-03 08:30N 49°52' W 003°21'713.8
2018-Jun-03 08:00N 49°56' W 003°12'814.1
2018-Jun-03 07:28N 49°58' W 003°00'714.6
2018-Jun-03 07:00N 49°60' W 002°50'815.7
2018-Jun-03 06:30N 50°02' W 002°38'816.2
2018-Jun-03 06:01N 50°04' W 002°26'816.7
2018-Jun-03 05:31N 50°06' W 002°14'917.4
2018-Jun-03 05:00N 50°08' W 002°01'917.7
2018-Jun-03 04:31N 50°10' W 001°47'917.6
2018-Jun-03 04:01N 50°13' W 001°34'917.3
2018-Jun-03 03:31N 50°15' W 001°21'816.8
2018-Jun-03 03:00N 50°17' W 001°08'816.1
2018-Jun-03 02:30N 50°19' W 000°56'714.9
2018-Jun-03 02:01N 50°22' W 000°46'714.2
2018-Jun-03 01:31N 50°24' W 000°35'713.9
2018-Jun-03 01:00N 50°26' W 000°24'713.5
2018-Jun-03 00:30N 50°28' W 000°14'613.1
2018-Jun-03 00:00N 50°30' W 000°04'612.6
2018-Jun-02 23:30N 50°32' E 000°05'612.4
2018-Jun-02 22:59N 50°33' E 000°15'612.4
2018-Jun-02 22:29N 50°35' E 000°24'613.1
2018-Jun-02 22:00N 50°37' E 000°34'713.8
2018-Jun-02 21:31N 50°40' E 000°43'714.7
2018-Jun-02 21:01N 50°44' E 000°53'815.4
2018-Jun-02 20:31N 50°49' E 001°02'1615.6
2018-Jun-02 19:28N 51°01' E 001°21'915.0
2018-Jun-02 18:51N 51°06' E 001°33'514.0
2018-Jun-02 18:30N 51°09' E 001°39'713.5
2018-Jun-02 18:00N 51°13' E 001°47'713.0
2018-Jun-02 17:30N 51°19' E 001°52'612.4
2018-Jun-02 17:01N 51°24' E 001°57'611.7
2018-Jun-02 16:28N 51°30' E 002°02'612.1
2018-Jun-02 16:00N 51°34' E 002°08'612.3
2018-Jun-02 15:30N 51°38' E 002°15'1712.7
2018-Jun-02 14:08N 51°51' E 002°35'313.6
2018-Jun-02 13:53N 51°53' E 002°38'2313.6
2018-Jun-02 12:13N 52°03' E 003°12'416.3
2018-Jun-02 11:59N 52°03' E 003°18'815.1
2018-Jun-02 11:29N 52°03' E 003°30'714.7
2018-Jun-02 11:00N 52°03' E 003°41'714.8
2018-Jun-02 10:30N 52°03' E 003°54'510.1
2018-Jun-02 10:00N 52°01' E 004°01'510.2
2018-Jun-02 09:31N 51°58' E 004°08'2 4.6
2018-Jun-02 09:01N 51°57' E 004°11'0 0.3
2018-Jun-02 08:30N 51°56' E 004°11'0 0.0
2018-Jun-02 08:00N 51°56' E 004°11'0 0.0
2018-Jun-02 07:30N 51°56' E 004°11'0 0.0
2018-Jun-02 07:00N 51°56' E 004°11'0 0.0
2018-Jun-02 06:30N 51°56' E 004°11'0 0.0
2018-Jun-02 06:00N 51°56' E 004°11'0 0.0
2018-Jun-02 05:30N 51°56' E 004°11'0 0.0
2018-Jun-02 04:30N 51°56' E 004°11'0 0.0
2018-Jun-02 04:00N 51°56' E 004°11'0 0.0
2018-Jun-02 03:30N 51°56' E 004°11'0 0.0
2018-Jun-02 03:00N 51°56' E 004°11'0 0.0
2018-Jun-02 02:30N 51°56' E 004°11'0 0.0
2018-Jun-02 02:00N 51°56' E 004°11'0 0.0
2018-Jun-02 01:27N 51°56' E 004°11'0 0.0
2018-Jun-02 01:00N 51°56' E 004°11'0 0.0
2018-Jun-02 00:30N 51°56' E 004°11'0 0.0
2018-Jun-02 00:00N 51°56' E 004°11'0 0.0
2018-Jun-01 23:30N 51°56' E 004°11'0 0.0
2018-Jun-01 23:00N 51°56' E 004°11'0 0.0
2018-Jun-01 22:30N 51°56' E 004°11'0 0.1
2018-Jun-01 22:00N 51°56' E 004°11'2 4.7
2018-Jun-01 21:30N 51°58' E 004°07'1 1.5
2018-Jun-01 21:00N 51°59' E 004°07'714.4
2018-Jun-01 20:30N 51°54' E 004°16'5 9.2
2018-Jun-01 20:00N 51°51' E 004°22'4 8.9
2018-Jun-01 19:30N 51°50' E 004°29'3 6.0
2018-Jun-01 19:00N 51°50' E 004°33'4 7.5
2018-Jun-01 18:30N 51°47' E 004°38'4 7.4
2018-Jun-01 18:00N 51°43' E 004°37'3 5.8
2018-Jun-01 17:30N 51°42' E 004°34'0 0.0
2018-Jun-01 16:58N 51°42' E 004°34'0 0.0
2018-Jun-01 16:28N 51°42' E 004°34'0 0.0
2018-Jun-01 15:55N 51°42' E 004°34'0 0.0
2018-Jun-01 15:28N 51°42' E 004°34'0 0.0
2018-Jun-01 14:58N 51°42' E 004°34'0 0.0
2018-Jun-01 14:28N 51°42' E 004°34'0 0.0
2018-Jun-01 13:58N 51°42' E 004°34'0 0.0
2018-Jun-01 13:28N 51°42' E 004°34'0 0.0
2018-Jun-01 12:58N 51°42' E 004°34'0 0.0
2018-Jun-01 12:25N 51°42' E 004°34'0 0.0
2018-Jun-01 11:58N 51°42' E 004°34'0 0.0
2018-Jun-01 11:25N 51°42' E 004°34'0 0.0
2018-Jun-01 10:58N 51°42' E 004°34'0 0.0
2018-Jun-01 10:28N 51°42' E 004°34'0 0.0
2018-Jun-01 09:58N 51°42' E 004°34'0 0.0
2018-Jun-01 09:28N 51°42' E 004°34'0 0.0
2018-Jun-01 08:58N 51°42' E 004°34'0 0.0
2018-Jun-01 08:28N 51°42' E 004°34'0 0.0
2018-Jun-01 07:58N 51°42' E 004°34'0 0.0
2018-Jun-01 07:28N 51°42' E 004°34'0 0.0
2018-Jun-01 06:58N 51°42' E 004°34'0 0.0
2018-Jun-01 06:28N 51°42' E 004°34'0 0.0
2018-Jun-01 05:58N 51°42' E 004°34'0 0.0
2018-Jun-01 05:28N 51°42' E 004°34'0 0.0
2018-Jun-01 04:58N 51°42' E 004°34'0 0.0
2018-Jun-01 04:28N 51°42' E 004°34'0 0.0
2018-Jun-01 03:58N 51°42' E 004°34'0 0.0
2018-Jun-01 03:28N 51°42' E 004°34'0 0.0
2018-Jun-01 02:58N 51°42' E 004°34'0 0.0
2018-Jun-01 02:28N 51°42' E 004°34'0 0.0
2018-Jun-01 01:58N 51°42' E 004°34'0 0.0
2018-Jun-01 01:28N 51°42' E 004°34'0 0.0
2018-Jun-01 00:58N 51°42' E 004°34'0 0.0
2018-Jun-01 00:28N 51°42' E 004°34'0 0.0
2018-May-31 23:58N 51°42' E 004°34'0 0.0
2018-May-31 23:28N 51°42' E 004°34'0 0.0
2018-May-31 22:58N 51°42' E 004°34'0 0.0
2018-May-31 22:28N 51°42' E 004°34'0 0.0
2018-May-31 21:58N 51°42' E 004°34'0 0.0
2018-May-31 21:28N 51°42' E 004°34'0 0.0
2018-May-31 20:55N 51°42' E 004°34'0 0.0
2018-May-31 20:28N 51°42' E 004°34'0 0.0
2018-May-31 19:58N 51°42' E 004°34'0 0.0
2018-May-31 19:25N 51°42' E 004°34'0 0.0
2018-May-31 18:58N 51°42' E 004°34'0 0.0
2018-May-31 18:28N 51°42' E 004°34'0 0.0
2018-May-31 17:58N 51°42' E 004°34'0 0.0
2018-May-31 17:28N 51°42' E 004°34'0 0.0
2018-May-31 16:58N 51°42' E 004°34'0 0.0
2018-May-31 16:25N 51°42' E 004°34'0 0.0
2018-May-31 15:55N 51°42' E 004°34'0 0.0
2018-May-31 15:25N 51°42' E 004°34'0 0.0
2018-May-31 14:58N 51°42' E 004°34'0 0.0
2018-May-31 14:28N 51°42' E 004°34'0 0.0
2018-May-31 13:58N 51°42' E 004°34'0 0.0
2018-May-31 13:28N 51°42' E 004°34'0 0.0
2018-May-31 12:58N 51°42' E 004°34'0 0.0
2018-May-31 12:28N 51°42' E 004°34'0 0.0
2018-May-31 11:58N 51°42' E 004°34'0 0.0
2018-May-31 11:22N 51°42' E 004°34'0 0.0
2018-May-31 10:55N 51°42' E 004°34'0 0.0
2018-May-31 10:28N 51°42' E 004°34'0 0.0
2018-May-31 09:58N 51°42' E 004°34'0 0.0
2018-May-31 09:28N 51°42' E 004°34'0 0.0
2018-May-31 08:55N 51°42' E 004°34'0 0.0
2018-May-31 08:28N 51°42' E 004°34'0 0.0
2018-May-31 07:58N 51°42' E 004°34'0 0.0
2018-May-31 07:28N 51°42' E 004°34'0 0.0
2018-May-31 06:58N 51°42' E 004°34'0 0.0
2018-May-31 06:28N 51°42' E 004°34'0 0.0
2018-May-31 05:58N 51°42' E 004°34'0 0.0
2018-May-31 05:28N 51°42' E 004°34'0 0.0
2018-May-31 04:58N 51°42' E 004°34'0 0.0
2018-May-31 04:28N 51°42' E 004°34'0 0.0
2018-May-31 03:55N 51°42' E 004°34'0 0.0
2018-May-31 03:28N 51°42' E 004°34'0 0.0
2018-May-31 02:58N 51°42' E 004°34'0 0.0
2018-May-31 02:28N 51°42' E 004°34'0 0.0
2018-May-31 01:58N 51°42' E 004°34'0 0.0
2018-May-31 01:28N 51°42' E 004°34'0 0.0
2018-May-31 00:58N 51°42' E 004°34'0 0.0
2018-May-31 00:28N 51°42' E 004°34'0 0.0
2018-May-30 23:58N 51°42' E 004°34'0 0.0
2018-May-30 23:28N 51°42' E 004°34'0 0.0
2018-May-30 22:58N 51°42' E 004°34'0 0.0
2018-May-30 22:28N 51°42' E 004°34'0 0.0
2018-May-30 21:58N 51°42' E 004°34'0 0.0
2018-May-30 21:28N 51°42' E 004°34'0 0.0
2018-May-30 20:58N 51°42' E 004°34'0 0.0
2018-May-30 20:28N 51°42' E 004°34'0 0.0
2018-May-30 19:58N 51°42' E 004°34'0 0.0
2018-May-30 19:25N 51°42' E 004°34'0 0.0
2018-May-30 18:58N 51°42' E 004°34'0 0.0
2018-May-30 18:25N 51°42' E 004°34'0 0.0
2018-May-30 17:55N 51°42' E 004°34'0 0.6
2018-May-30 17:30N 51°42' E 004°34'2 3.4
2018-May-30 17:01N 51°42' E 004°37'4 7.6
2018-May-30 16:31N 51°46' E 004°38'4 7.3
2018-May-30 16:00N 51°49' E 004°34'4 8.6
2018-May-30 15:31N 51°50' E 004°27'5 9.6
2018-May-30 15:01N 51°52' E 004°20'3 6.5
2018-May-30 14:30N 51°54' E 004°16'713.0
2018-May-30 14:00N 51°58' E 004°08'612.5
2018-May-30 13:31N 52°00' E 003°58'611.1
2018-May-30 13:00N 51°60' E 003°49'611.1
2018-May-30 12:30N 51°58' E 003°41'510.0
2018-May-30 12:00N 51°55' E 003°35'0 0.8
2018-May-30 11:30N 51°54' E 003°34'0 0.0
2018-May-30 10:48N 51°54' E 003°34'0 0.0
2018-May-30 10:21N 51°54' E 003°34'0 0.0
2018-May-30 09:33N 51°54' E 003°34'0 0.1
2018-May-30 09:27N 51°54' E 003°34'0 0.0
2018-May-30 08:15N 51°54' E 003°34'0 0.1
2018-May-30 06:18N 51°55' E 003°34'0 0.1
2018-May-30 05:57N 51°55' E 003°34'0 0.0
2018-May-30 05:09N 51°55' E 003°34'0 0.0
2018-May-30 04:57N 51°55' E 003°34'0 0.0
2018-May-30 04:30N 51°55' E 003°34'0 0.0
2018-May-30 04:00N 51°55' E 003°34'0 0.0
2018-May-30 03:27N 51°55' E 003°34'0 0.0
2018-May-30 03:00N 51°55' E 003°34'  
Track history (hours):
 
Tides and Currents Weather Stations Pressure Air Temp Water Temp Dewpoint Dewpoint Depression Visibility Wind Speed Wind Dir Waves Ship Positions

Zita Schulte

Last reported at 2018-Jun-09 02:44 UTC. Time now 2018-Jun-23 16:13 UTC.
Position N 36°08' E 014°48'.
Warning: this ship's position is 14 days out of date.

Length 146 m; draft 7.9 m.

Type: Tanker. MMSI: 235116958.

Date/timePositionNaut miles runAvg speedWind from/ knotsBaromVisibWave heightAir tempDewpointWater temp
2018-Jun-09 02:44N 36°08' E 014°48'415.5
2018-Jun-09 02:28N 36°09' E 014°42'815.5
2018-Jun-09 01:58N 36°11' E 014°33'715.5
2018-Jun-09 01:30N 36°13' E 014°25'815.4
2018-Jun-09 01:00N 36°17' E 014°16'815.3
2018-Jun-09 00:30N 36°20' E 014°08'815.3
2018-Jun-09 00:00N 36°22' E 013°59'815.7
2018-Jun-08 23:30N 36°25' E 013°49'915.8
2018-Jun-08 22:57N 36°28' E 013°40'715.5
2018-Jun-08 22:29N 36°31' E 013°31'915.2
2018-Jun-08 21:54N 36°35' E 013°21'615.2
2018-Jun-08 21:30N 36°37' E 013°14'815.1
2018-Jun-08 21:00N 36°40' E 013°05'  
2018-Jun-06 11:29N 36°01' W 005°14'817.1
2018-Jun-06 11:01N 35°58' W 005°24'26613.1
2018-Jun-05 14:41N 38°22' W 010°06'315.7
2018-Jun-05 14:30N 38°24' W 010°07'1315.7
2018-Jun-05 13:38N 38°37' W 010°10'215.7
2018-Jun-05 13:30N 38°40' W 010°11'816.1
2018-Jun-05 13:01N 38°47' W 010°11'816.3
2018-Jun-05 12:30N 38°56' W 010°11'815.9
2018-Jun-05 12:00N 39°04' W 010°11'816.0
2018-Jun-05 11:30N 39°12' W 010°11'56614.2
2018-Jun-03 19:43N 48°13' W 006°21'12213.8
2018-Jun-03 10:52N 49°35' W 004°03'713.5
2018-Jun-03 10:21N 49°38' W 003°54'513.7
2018-Jun-03 10:00N 49°41' W 003°48'713.7
2018-Jun-03 09:30N 49°45' W 003°39'713.7
2018-Jun-03 09:00N 49°48' W 003°30'713.8
2018-Jun-03 08:30N 49°52' W 003°21'713.8
2018-Jun-03 08:00N 49°56' W 003°12'814.1
2018-Jun-03 07:28N 49°58' W 003°00'714.6
2018-Jun-03 07:00N 49°60' W 002°50'815.7
2018-Jun-03 06:30N 50°02' W 002°38'816.2
2018-Jun-03 06:01N 50°04' W 002°26'816.7
2018-Jun-03 05:31N 50°06' W 002°14'917.4
2018-Jun-03 05:00N 50°08' W 002°01'917.7
2018-Jun-03 04:31N 50°10' W 001°47'917.6
2018-Jun-03 04:01N 50°13' W 001°34'917.3
2018-Jun-03 03:31N 50°15' W 001°21'816.8
2018-Jun-03 03:00N 50°17' W 001°08'816.1
2018-Jun-03 02:30N 50°19' W 000°56'714.9
2018-Jun-03 02:01N 50°22' W 000°46'714.2
2018-Jun-03 01:31N 50°24' W 000°35'713.9
2018-Jun-03 01:00N 50°26' W 000°24'713.5
2018-Jun-03 00:30N 50°28' W 000°14'613.1
2018-Jun-03 00:00N 50°30' W 000°04'612.6
2018-Jun-02 23:30N 50°32' E 000°05'612.4
2018-Jun-02 22:59N 50°33' E 000°15'612.4
2018-Jun-02 22:29N 50°35' E 000°24'613.1
2018-Jun-02 22:00N 50°37' E 000°34'713.8
2018-Jun-02 21:31N 50°40' E 000°43'714.7
2018-Jun-02 21:01N 50°44' E 000°53'815.4
2018-Jun-02 20:31N 50°49' E 001°02'1615.6
2018-Jun-02 19:28N 51°01' E 001°21'915.0
2018-Jun-02 18:51N 51°06' E 001°33'514.0
2018-Jun-02 18:30N 51°09' E 001°39'713.5
2018-Jun-02 18:00N 51°13' E 001°47'713.0
2018-Jun-02 17:30N 51°19' E 001°52'612.4
2018-Jun-02 17:01N 51°24' E 001°57'611.7
2018-Jun-02 16:28N 51°30' E 002°02'612.1
2018-Jun-02 16:00N 51°34' E 002°08'612.3
2018-Jun-02 15:30N 51°38' E 002°15'1712.7
2018-Jun-02 14:08N 51°51' E 002°35'313.6
2018-Jun-02 13:53N 51°53' E 002°38'2313.6
2018-Jun-02 12:13N 52°03' E 003°12'416.3
2018-Jun-02 11:59N 52°03' E 003°18'815.1
2018-Jun-02 11:29N 52°03' E 003°30'714.7
2018-Jun-02 11:00N 52°03' E 003°41'714.8
2018-Jun-02 10:30N 52°03' E 003°54'510.1
2018-Jun-02 10:00N 52°01' E 004°01'510.2
2018-Jun-02 09:31N 51°58' E 004°08'2 4.6
2018-Jun-02 09:01N 51°57' E 004°11'0 0.3
2018-Jun-02 08:30N 51°56' E 004°11'0 0.0
2018-Jun-02 08:00N 51°56' E 004°11'0 0.0
2018-Jun-02 07:30N 51°56' E 004°11'0 0.0
2018-Jun-02 07:00N 51°56' E 004°11'0 0.0
2018-Jun-02 06:30N 51°56' E 004°11'0 0.0
2018-Jun-02 06:00N 51°56' E 004°11'0 0.0
2018-Jun-02 05:30N 51°56' E 004°11'0 0.0
2018-Jun-02 04:30N 51°56' E 004°11'0 0.0
2018-Jun-02 04:00N 51°56' E 004°11'0 0.0
2018-Jun-02 03:30N 51°56' E 004°11'0 0.0
2018-Jun-02 03:00N 51°56' E 004°11'0 0.0
2018-Jun-02 02:30N 51°56' E 004°11'0 0.0
2018-Jun-02 02:00N 51°56' E 004°11'0 0.0
2018-Jun-02 01:27N 51°56' E 004°11'0 0.0
2018-Jun-02 01:00N 51°56' E 004°11'0 0.0
2018-Jun-02 00:30N 51°56' E 004°11'0 0.0
2018-Jun-02 00:00N 51°56' E 004°11'0 0.0
2018-Jun-01 23:30N 51°56' E 004°11'0 0.0
2018-Jun-01 23:00N 51°56' E 004°11'0 0.0
2018-Jun-01 22:30N 51°56' E 004°11'0 0.1
2018-Jun-01 22:00N 51°56' E 004°11'2 4.7
2018-Jun-01 21:30N 51°58' E 004°07'1 1.5
2018-Jun-01 21:00N 51°59' E 004°07'714.4
2018-Jun-01 20:30N 51°54' E 004°16'5 9.2
2018-Jun-01 20:00N 51°51' E 004°22'4 8.9
2018-Jun-01 19:30N 51°50' E 004°29'3 6.0
2018-Jun-01 19:00N 51°50' E 004°33'4 7.5
2018-Jun-01 18:30N 51°47' E 004°38'4 7.4
2018-Jun-01 18:00N 51°43' E 004°37'3 5.8
2018-Jun-01 17:30N 51°42' E 004°34'0 0.0
2018-Jun-01 16:58N 51°42' E 004°34'0 0.0
2018-Jun-01 16:28N 51°42' E 004°34'0 0.0
2018-Jun-01 15:55N 51°42' E 004°34'0 0.0
2018-Jun-01 15:28N 51°42' E 004°34'0 0.0
2018-Jun-01 14:58N 51°42' E 004°34'0 0.0
2018-Jun-01 14:28N 51°42' E 004°34'0 0.0
2018-Jun-01 13:58N 51°42' E 004°34'0 0.0
2018-Jun-01 13:28N 51°42' E 004°34'0 0.0
2018-Jun-01 12:58N 51°42' E 004°34'0 0.0
2018-Jun-01 12:25N 51°42' E 004°34'0 0.0
2018-Jun-01 11:58N 51°42' E 004°34'0 0.0
2018-Jun-01 11:25N 51°42' E 004°34'0 0.0
2018-Jun-01 10:58N 51°42' E 004°34'0 0.0
2018-Jun-01 10:28N 51°42' E 004°34'0 0.0
2018-Jun-01 09:58N 51°42' E 004°34'0 0.0
2018-Jun-01 09:28N 51°42' E 004°34'0 0.0
2018-Jun-01 08:58N 51°42' E 004°34'0 0.0
2018-Jun-01 08:28N 51°42' E 004°34'0 0.0
2018-Jun-01 07:58N 51°42' E 004°34'0 0.0
2018-Jun-01 07:28N 51°42' E 004°34'0 0.0
2018-Jun-01 06:58N 51°42' E 004°34'0 0.0
2018-Jun-01 06:28N 51°42' E 004°34'0 0.0
2018-Jun-01 05:58N 51°42' E 004°34'0 0.0
2018-Jun-01 05:28N 51°42' E 004°34'0 0.0
2018-Jun-01 04:58N 51°42' E 004°34'0 0.0
2018-Jun-01 04:28N 51°42' E 004°34'0 0.0
2018-Jun-01 03:58N 51°42' E 004°34'0 0.0
2018-Jun-01 03:28N 51°42' E 004°34'0 0.0
2018-Jun-01 02:58N 51°42' E 004°34'0 0.0
2018-Jun-01 02:28N 51°42' E 004°34'0 0.0
2018-Jun-01 01:58N 51°42' E 004°34'0 0.0
2018-Jun-01 01:28N 51°42' E 004°34'0 0.0
2018-Jun-01 00:58N 51°42' E 004°34'0 0.0
2018-Jun-01 00:28N 51°42' E 004°34'0 0.0
2018-May-31 23:58N 51°42' E 004°34'0 0.0
2018-May-31 23:28N 51°42' E 004°34'0 0.0
2018-May-31 22:58N 51°42' E 004°34'0 0.0
2018-May-31 22:28N 51°42' E 004°34'0 0.0
2018-May-31 21:58N 51°42' E 004°34'0 0.0
2018-May-31 21:28N 51°42' E 004°34'0 0.0
2018-May-31 20:55N 51°42' E 004°34'0 0.0
2018-May-31 20:28N 51°42' E 004°34'0 0.0
2018-May-31 19:58N 51°42' E 004°34'0 0.0
2018-May-31 19:25N 51°42' E 004°34'0 0.0
2018-May-31 18:58N 51°42' E 004°34'0 0.0
2018-May-31 18:28N 51°42' E 004°34'0 0.0
2018-May-31 17:58N 51°42' E 004°34'0 0.0
2018-May-31 17:28N 51°42' E 004°34'0 0.0
2018-May-31 16:58N 51°42' E 004°34'0 0.0
2018-May-31 16:25N 51°42' E 004°34'0 0.0
2018-May-31 15:55N 51°42' E 004°34'0 0.0
2018-May-31 15:25N 51°42' E 004°34'0 0.0
2018-May-31 14:58N 51°42' E 004°34'0 0.0
2018-May-31 14:28N 51°42' E 004°34'0 0.0
2018-May-31 13:58N 51°42' E 004°34'0 0.0
2018-May-31 13:28N 51°42' E 004°34'0 0.0
2018-May-31 12:58N 51°42' E 004°34'0 0.0
2018-May-31 12:28N 51°42' E 004°34'0 0.0
2018-May-31 11:58N 51°42' E 004°34'0 0.0
2018-May-31 11:22N 51°42' E 004°34'0 0.0
2018-May-31 10:55N 51°42' E 004°34'0 0.0
2018-May-31 10:28N 51°42' E 004°34'0 0.0
2018-May-31 09:58N 51°42' E 004°34'0 0.0
2018-May-31 09:28N 51°42' E 004°34'0 0.0
2018-May-31 08:55N 51°42' E 004°34'0 0.0
2018-May-31 08:28N 51°42' E 004°34'0 0.0
2018-May-31 07:58N 51°42' E 004°34'0 0.0
2018-May-31 07:28N 51°42' E 004°34'0 0.0
2018-May-31 06:58N 51°42' E 004°34'0 0.0
2018-May-31 06:28N 51°42' E 004°34'0 0.0
2018-May-31 05:58N 51°42' E 004°34'0 0.0
2018-May-31 05:28N 51°42' E 004°34'0 0.0
2018-May-31 04:58N 51°42' E 004°34'0 0.0
2018-May-31 04:28N 51°42' E 004°34'0 0.0
2018-May-31 03:55N 51°42' E 004°34'0 0.0
2018-May-31 03:28N 51°42' E 004°34'0 0.0
2018-May-31 02:58N 51°42' E 004°34'0 0.0
2018-May-31 02:28N 51°42' E 004°34'0 0.0
2018-May-31 01:58N 51°42' E 004°34'0 0.0
2018-May-31 01:28N 51°42' E 004°34'0 0.0
2018-May-31 00:58N 51°42' E 004°34'0 0.0
2018-May-31 00:28N 51°42' E 004°34'0 0.0
2018-May-30 23:58N 51°42' E 004°34'0 0.0
2018-May-30 23:28N 51°42' E 004°34'0 0.0
2018-May-30 22:58N 51°42' E 004°34'0 0.0
2018-May-30 22:28N 51°42' E 004°34'0 0.0
2018-May-30 21:58N 51°42' E 004°34'0 0.0
2018-May-30 21:28N 51°42' E 004°34'0 0.0
2018-May-30 20:58N 51°42' E 004°34'0 0.0
2018-May-30 20:28N 51°42' E 004°34'0 0.0
2018-May-30 19:58N 51°42' E 004°34'0 0.0
2018-May-30 19:25N 51°42' E 004°34'0 0.0
2018-May-30 18:58N 51°42' E 004°34'0 0.0
2018-May-30 18:25N 51°42' E 004°34'0 0.0
2018-May-30 17:55N 51°42' E 004°34'0 0.6
2018-May-30 17:30N 51°42' E 004°34'2 3.4
2018-May-30 17:01N 51°42' E 004°37'4 7.6
2018-May-30 16:31N 51°46' E 004°38'4 7.3
2018-May-30 16:00N 51°49' E 004°34'4 8.6
2018-May-30 15:31N 51°50' E 004°27'5 9.6
2018-May-30 15:01N 51°52' E 004°20'3 6.5
2018-May-30 14:30N 51°54' E 004°16'713.0
2018-May-30 14:00N 51°58' E 004°08'612.5
2018-May-30 13:31N 52°00' E 003°58'611.1
2018-May-30 13:00N 51°60' E 003°49'611.1
2018-May-30 12:30N 51°58' E 003°41'510.0
2018-May-30 12:00N 51°55' E 003°35'0 0.8
2018-May-30 11:30N 51°54' E 003°34'0 0.0
2018-May-30 10:48N 51°54' E 003°34'0 0.0
2018-May-30 10:21N 51°54' E 003°34'0 0.0
2018-May-30 09:33N 51°54' E 003°34'0 0.1
2018-May-30 09:27N 51°54' E 003°34'0 0.0
2018-May-30 08:15N 51°54' E 003°34'0 0.1
2018-May-30 06:18N 51°55' E 003°34'0 0.1
2018-May-30 05:57N 51°55' E 003°34'0 0.0
2018-May-30 05:09N 51°55' E 003°34'0 0.0
2018-May-30 04:57N 51°55' E 003°34'0 0.0
2018-May-30 04:30N 51°55' E 003°34'0 0.0
2018-May-30 04:00N 51°55' E 003°34'0 0.0
2018-May-30 03:27N 51°55' E 003°34'0 0.0
2018-May-30 03:00N 51°55' E 003°34'  

Dump ship's entire track history